Time;durP1;ratioP1;P1;durP2;ratioP2;P2;SDS_P1;SDS_P2;PMS_P1;PMS_P2;Temp;Humidity;BMP_temperature;BMP_pressure;BME280_temperature;BME280_humidity;BME280_pressure;Samples;Min_cycle;Max_cycle;Signal;HPM_P1;HPM_P2
2020/12/04 00:00:59;;;;;;;15.13;9.33;;;12.90;46.90;;;;;;4998178;28;20197;-60
2020/12/04 00:03:25;;;;;;;15.23;10.03;;;12.90;46.90;;;;;;4998504;28;20191;-60
2020/12/04 00:05:51;;;;;;;16.10;9.80;;;12.90;47.00;;;;;;4997253;28;20201;-59
2020/12/04 00:08:16;;;;;;;15.07;8.87;;;12.90;46.80;;;;;;4998172;28;20232;-60
2020/12/04 00:10:42;;;;;;;16.43;9.67;;;12.90;47.10;;;;;;4998237;28;20847;-59
2020/12/04 00:13:08;;;;;;;16.00;9.10;;;12.90;47.50;;;;;;4998306;28;20326;-59
2020/12/04 00:15:33;;;;;;;17.17;10.10;;;12.80;46.70;;;;;;4998875;28;20181;-59
2020/12/04 00:18:00;;;;;;;14.67;9.67;;;12.80;46.90;;;;;;4997917;28;20688;-59
2020/12/04 00:20:26;;;;;;;15.77;10.53;;;12.80;46.80;;;;;;4997903;28;20191;-59
2020/12/04 00:22:52;;;;;;;15.70;11.00;;;12.80;46.80;;;;;;4998525;28;20182;-59
2020/12/04 00:25:17;;;;;;;16.87;10.60;;;12.80;46.60;;;;;;4997930;28;20505;-59
2020/12/04 00:27:43;;;;;;;14.00;10.10;;;12.80;47.10;;;;;;4998379;28;20350;-60
2020/12/04 00:30:09;;;;;;;16.40;10.30;;;12.70;47.10;;;;;;4997569;28;20715;-59
2020/12/04 00:32:34;;;;;;;15.50;10.40;;;12.80;47.10;;;;;;4997825;28;20902;-59
2020/12/04 00:35:00;;;;;;;14.87;10.73;;;12.80;47.10;;;;;;4998599;28;20184;-60
2020/12/04 00:37:26;;;;;;;16.80;10.40;;;12.80;46.60;;;;;;4998220;28;20644;-59
2020/12/04 00:39:51;;;;;;;15.43;10.53;;;12.80;47.00;;;;;;4998398;28;20189;-59
2020/12/04 00:42:17;;;;;;;17.20;11.53;;;12.80;46.60;;;;;;4997776;28;20201;-59
2020/12/04 00:44:43;;;;;;;17.47;10.93;;;12.80;46.70;;;;;;4998596;28;20196;-59
2020/12/04 00:47:08;;;;;;;16.73;11.27;;;12.80;46.60;;;;;;4998626;28;20592;-59
2020/12/04 00:49:34;;;;;;;14.70;10.57;;;12.80;46.50;;;;;;4997514;28;20181;-59
2020/12/04 00:52:00;;;;;;;15.37;10.30;;;12.70;46.70;;;;;;4997149;28;20288;-60
2020/12/04 00:54:26;;;;;;;17.43;10.80;;;12.70;46.70;;;;;;5000481;28;20194;-60
2020/12/04 00:56:52;;;;;;;16.97;11.40;;;12.70;46.80;;;;;;5002118;28;20201;-59
2020/12/04 00:59:27;;;;;;;16.53;10.83;;;12.70;46.60;;;;;;5001708;28;20181;-59
2020/12/04 01:01:52;;;;;;;15.87;11.07;;;12.70;46.60;;;;;;5001404;28;20191;-59
2020/12/04 01:04:18;;;;;;;17.23;11.17;;;12.70;46.50;;;;;;5001047;28;20293;-59
2020/12/04 01:06:44;;;;;;;19.93;11.67;;;12.70;46.70;;;;;;5001347;28;20223;-59
2020/12/04 01:09:09;;;;;;;14.70;9.80;;;12.70;46.70;;;;;;5000770;28;20270;-59
2020/12/04 01:11:35;;;;;;;16.80;10.40;;;12.70;46.80;;;;;;5000688;28;20379;-59
2020/12/04 01:14:01;;;;;;;17.63;10.83;;;12.70;46.60;;;;;;5001579;28;20269;-60
2020/12/04 01:16:27;;;;;;;18.07;9.90;;;12.60;46.70;;;;;;5001491;28;20189;-59
2020/12/04 01:18:52;;;;;;;16.03;9.47;;;12.60;46.70;;;;;;5000361;28;20185;-59
2020/12/04 01:21:18;;;;;;;16.53;9.10;;;12.60;46.90;;;;;;5000920;28;20971;-59
2020/12/04 01:23:44;;;;;;;17.07;10.37;;;12.60;46.60;;;;;;4999340;28;20177;-59
2020/12/04 01:26:09;;;;;;;17.10;10.47;;;12.60;46.70;;;;;;5000833;28;20736;-60
2020/12/04 01:28:35;;;;;;;13.90;9.07;;;12.60;46.60;;;;;;5001273;28;20224;-60
2020/12/04 01:31:01;;;;;;;17.40;10.17;;;12.60;46.80;;;;;;4999581;28;20185;-59
2020/12/04 01:33:27;;;;;;;17.40;10.13;;;12.60;46.90;;;;;;5000775;28;20221;-59
2020/12/04 01:35:52;;;;;;;15.43;9.87;;;12.60;46.70;;;;;;4998621;28;20222;-60
2020/12/04 01:38:18;;;;;;;16.73;9.87;;;12.60;46.60;;;;;;5000575;28;20642;-59
2020/12/04 01:40:44;;;;;;;16.50;10.03;;;12.50;47.10;;;;;;4999897;28;20192;-59
2020/12/04 01:43:09;;;;;;;18.53;11.13;;;12.50;46.70;;;;;;5000345;28;20966;-59
2020/12/04 01:45:36;;;;;;;16.67;10.90;;;12.50;46.70;;;;;;4999664;28;20203;-59
2020/12/04 01:48:05;;;;;;;18.03;10.20;;;12.50;46.90;;;;;;4999734;28;20213;-60
2020/12/04 01:50:31;;;;;;;17.03;10.47;;;12.50;46.70;;;;;;5000269;28;20182;-60
2020/12/04 01:52:59;;;;;;;13.93;9.37;;;12.50;46.70;;;;;;5000584;28;20203;-59
2020/12/04 01:55:25;;;;;;;16.27;9.17;;;12.50;46.60;;;;;;4999835;28;20490;-59
2020/12/04 01:57:52;;;;;;;16.77;9.83;;;12.50;46.70;;;;;;5000236;28;20322;-59
2020/12/04 02:00:19;;;;;;;16.17;9.67;;;12.50;47.30;;;;;;5000463;28;20183;-59
2020/12/04 02:02:47;;;;;;;17.90;10.10;;;12.50;46.80;;;;;;5001045;28;20194;-59
2020/12/04 02:05:12;;;;;;;17.20;9.93;;;12.50;46.90;;;;;;5000555;28;20278;-59
2020/12/04 02:08:16;;;;;;;15.77;9.73;;;12.50;46.90;;;;;;5001144;28;20231;-59
2020/12/04 02:11:11;;;;;;;17.90;11.03;;;12.50;47.30;;;;;;5000668;28;20321;-59
2020/12/04 02:13:39;;;;;;;17.10;9.90;;;12.50;46.90;;;;;;5001326;28;20214;-59
2020/12/04 02:16:06;;;;;;;17.73;11.07;;;12.50;47.00;;;;;;5000861;28;20181;-59
2020/12/04 02:18:32;;;;;;;14.33;9.47;;;12.50;46.80;;;;;;5000497;28;20215;-59
2020/12/04 02:20:59;;;;;;;17.73;10.30;;;12.50;47.00;;;;;;5000319;28;20183;-59
2020/12/04 02:23:26;;;;;;;20.87;11.63;;;12.50;46.90;;;;;;4999929;28;20233;-59
2020/12/04 02:25:52;;;;;;;16.97;9.83;;;12.50;47.10;;;;;;4998365;28;20940;-60
2020/12/04 02:28:30;;;;;;;16.43;10.53;;;12.50;47.00;;;;;;5000212;28;20226;-59
2020/12/04 02:30:55;;;;;;;17.40;10.07;;;12.40;46.90;;;;;;4998642;28;20196;-59
2020/12/04 02:33:21;;;;;;;17.43;10.50;;;12.50;47.10;;;;;;5000094;28;20222;-59
2020/12/04 02:35:47;;;;;;;16.03;9.80;;;12.50;46.80;;;;;;4999835;28;20280;-60
2020/12/04 02:38:12;;;;;;;17.43;10.67;;;12.50;46.90;;;;;;4999690;28;20320;-59
2020/12/04 02:40:38;;;;;;;18.07;9.70;;;12.40;46.80;;;;;;4998899;28;20214;-59
2020/12/04 02:43:03;;;;;;;15.53;9.50;;;12.40;47.10;;;;;;4999547;28;20218;-59
2020/12/04 02:45:29;;;;;;;16.17;10.80;;;12.40;47.10;;;;;;4999479;28;20773;-59
2020/12/04 02:47:55;;;;;;;14.93;10.00;;;12.40;46.90;;;;;;4999047;28;20221;-59
2020/12/04 02:50:20;;;;;;;17.07;10.97;;;12.40;47.10;;;;;;4999929;28;20664;-59
2020/12/04 02:52:46;;;;;;;17.83;10.87;;;12.40;46.90;;;;;;4999678;28;20653;-60
2020/12/04 02:55:11;;;;;;;15.27;9.97;;;12.40;46.90;;;;;;5000154;28;20188;-59
2020/12/04 02:57:37;;;;;;;15.53;9.97;;;12.40;47.00;;;;;;5000227;28;20205;-59
2020/12/04 03:00:04;;;;;;;15.17;10.40;;;12.40;47.30;;;;;;4999814;28;20748;-60
2020/12/04 03:02:30;;;;;;;17.23;10.60;;;12.40;47.10;;;;;;4999997;28;20223;-59
2020/12/04 03:04:55;;;;;;;14.93;9.27;;;12.40;47.00;;;;;;4998375;28;20268;-59
2020/12/04 03:07:21;;;;;;;16.20;10.07;;;12.40;47.00;;;;;;4999828;28;21151;-59
2020/12/04 03:09:46;;;;;;;14.90;10.07;;;12.40;47.10;;;;;;4999281;28;20980;-59
2020/12/04 03:12:12;;;;;;;16.40;10.33;;;12.40;47.00;;;;;;4999541;28;20695;-59
2020/12/04 03:14:38;;;;;;;17.20;9.40;;;12.40;47.10;;;;;;4999400;28;20183;-60
2020/12/04 03:17:03;;;;;;;14.63;9.40;;;12.40;47.10;;;;;;4996130;28;20216;-59
2020/12/04 03:19:29;;;;;;;16.67;9.90;;;12.40;47.00;;;;;;4998016;28;20190;-59
2020/12/04 03:21:55;;;;;;;16.37;10.20;;;12.40;47.10;;;;;;4999218;28;20195;-59
2020/12/04 03:24:20;;;;;;;16.57;9.70;;;12.40;47.10;;;;;;4999536;28;20352;-59
2020/12/04 03:26:46;;;;;;;14.23;9.07;;;12.30;47.20;;;;;;4999611;28;20708;-59
2020/12/04 03:29:12;;;;;;;17.53;10.23;;;12.30;47.10;;;;;;4999128;28;20595;-59
2020/12/04 03:31:38;;;;;;;15.33;9.77;;;12.30;47.20;;;;;;4999143;28;20299;-60
2020/12/04 03:34:03;;;;;;;14.53;9.20;;;12.30;47.20;;;;;;4999299;28;20632;-60
2020/12/04 03:36:29;;;;;;;17.50;10.47;;;12.30;47.20;;;;;;4999448;28;20255;-59
2020/12/04 03:38:54;;;;;;;16.10;9.93;;;12.30;47.10;;;;;;4999276;28;20223;-59
2020/12/04 03:41:20;;;;;;;14.87;9.33;;;12.30;47.30;;;;;;4999110;28;20665;-59
2020/12/04 03:43:46;;;;;;;14.77;9.23;;;12.30;47.30;;;;;;4999227;28;20189;-60
2020/12/04 03:46:12;;;;;;;15.40;9.93;;;12.30;47.50;;;;;;4997057;28;20244;-59
2020/12/04 03:48:41;;;;;;;17.43;10.47;;;12.30;47.50;;;;;;4999462;28;20201;-60
2020/12/04 03:51:07;;;;;;;15.43;9.87;;;12.30;47.50;;;;;;4999031;28;20196;-59
2020/12/04 03:53:33;;;;;;;13.63;9.27;;;12.30;47.40;;;;;;4998520;28;20967;-60
2020/12/04 03:55:59;;;;;;;17.17;9.80;;;12.30;47.50;;;;;;4999316;28;20182;-59
2020/12/04 03:58:25;;;;;;;16.40;9.70;;;12.30;47.30;;;;;;4997802;28;20226;-59
2020/12/04 04:00:51;;;;;;;17.73;10.07;;;12.30;47.50;;;;;;4998446;28;20185;-59
2020/12/04 04:03:17;;;;;;;15.60;10.10;;;12.30;47.70;;;;;;4999008;28;20194;-59
2020/12/04 04:05:42;;;;;;;16.03;10.07;;;12.30;47.90;;;;;;4998523;28;20218;-59
2020/12/04 04:08:08;;;;;;;15.37;9.53;;;12.30;47.60;;;;;;4998133;28;21092;-60
2020/12/04 04:10:34;;;;;;;16.83;9.83;;;12.30;47.60;;;;;;4998035;28;20196;-59
2020/12/04 04:12:59;;;;;;;17.50;10.70;;;12.30;47.70;;;;;;4998709;28;20217;-60
2020/12/04 04:15:25;;;;;;;16.63;10.37;;;12.30;47.60;;;;;;4998495;28;20625;-59
2020/12/04 04:17:51;;;;;;;14.97;9.57;;;12.30;47.60;;;;;;4997901;28;20294;-59
2020/12/04 04:20:16;;;;;;;15.63;10.00;;;12.30;47.90;;;;;;4997972;28;20194;-60
2020/12/04 04:22:42;;;;;;;15.20;10.03;;;12.30;48.10;;;;;;4996415;28;20195;-59
2020/12/04 04:25:08;;;;;;;14.80;9.63;;;12.30;47.90;;;;;;4996680;28;20193;-59
2020/12/04 04:27:34;;;;;;;15.13;10.00;;;12.40;48.00;;;;;;4998616;28;20681;-59
2020/12/04 04:29:59;;;;;;;15.40;10.37;;;12.30;48.50;;;;;;4997800;28;20201;-58
2020/12/04 04:32:25;;;;;;;15.47;10.73;;;12.30;48.00;;;;;;4998493;28;20213;-59
2020/12/04 04:34:51;;;;;;;16.77;10.70;;;12.30;47.80;;;;;;4998441;28;20754;-59
2020/12/04 04:37:16;;;;;;;17.20;11.80;;;12.30;48.20;;;;;;4998109;28;20606;-61
2020/12/04 04:39:43;;;;;;;17.13;11.00;;;12.40;48.10;;;;;;4998377;28;20292;-61
2020/12/04 04:42:09;;;;;;;15.87;10.93;;;12.40;48.10;;;;;;4997362;28;20234;-60
2020/12/04 04:44:35;;;;;;;15.83;11.07;;;12.40;48.00;;;;;;4998201;28;20200;-61
2020/12/04 04:47:06;;;;;;;14.03;10.40;;;12.40;47.90;;;;;;4998166;28;20215;-61
2020/12/04 04:49:37;;;;;;;14.83;9.47;;;12.40;47.90;;;;;;4994140;28;20282;-62
2020/12/04 04:52:06;;;;;;;15.43;9.73;;;12.40;47.90;;;;;;5028485;28;20194;-61
2020/12/04 04:54:35;;;;;;;14.17;9.90;;;12.40;47.80;;;;;;4998252;28;20182;-59
2020/12/04 04:57:01;;;;;;;16.90;10.60;;;12.40;48.10;;;;;;4997968;28;20216;-61
2020/12/04 04:59:27;;;;;;;14.43;9.20;;;12.40;47.90;;;;;;4997078;28;20667;-61
2020/12/04 05:01:53;;;;;;;16.13;9.87;;;12.40;47.80;;;;;;4998400;28;20189;-61
2020/12/04 05:04:19;;;;;;;16.63;10.40;;;12.40;47.90;;;;;;4997701;28;20180;-60
2020/12/04 05:06:44;;;;;;;16.10;10.10;;;12.50;48.10;;;;;;4997354;28;20207;-61
2020/12/04 05:09:16;;;;;;;15.40;10.37;;;12.50;48.10;;;;;;4988333;28;20185;-61
2020/12/04 05:11:56;;;;;;;14.80;8.73;;;12.50;50.70;;;;;;4998088;28;20214;-61
2020/12/04 05:14:24;;;;;;;16.47;9.10;;;12.60;53.50;;;;;;4995963;28;20193;-61
2020/12/04 05:16:52;;;;;;;18.77;9.67;;;12.60;53.20;;;;;;4996949;28;20213;-61
2020/12/04 05:19:32;;;;;;;24.17;13.63;;;12.60;52.40;;;;;;4997675;28;20199;-60
2020/12/04 05:22:08;;;;;;;29.47;16.27;;;12.60;52.60;;;;;;4997274;28;20193;-60
2020/12/04 05:24:34;;;;;;;39.40;22.17;;;12.80;53.50;;;;;;4997915;28;20200;-60
2020/12/04 05:27:00;;;;;;;69.80;42.73;;;12.80;52.60;;;;;;4997611;28;20210;-60
2020/12/04 05:29:38;;;;;;;60.43;36.80;;;12.90;52.40;;;;;;4996299;28;20182;-60
2020/12/04 05:32:15;;;;;;;79.27;45.90;;;12.90;52.20;;;;;;4994870;28;20200;-60
2020/12/04 05:34:41;;;;;;;67.90;41.27;;;12.90;52.00;;;;;;4997368;28;20605;-60
2020/12/04 05:37:09;;;;;;;73.00;42.10;;;12.90;51.10;;;;;;4997256;28;20220;-63
2020/12/04 05:39:41;;;;;;;65.33;42.03;;;12.90;49.90;;;;;;4990037;28;20194;-61
2020/12/04 05:42:07;;;;;;;78.27;44.73;;;12.90;50.10;;;;;;5001171;28;20186;-61
2020/12/04 05:44:34;;;;;;;72.13;45.80;;;13.00;50.10;;;;;;4999930;28;20290;-61
2020/12/04 05:46:59;;;;;;;74.63;45.43;;;13.00;50.40;;;;;;4999706;28;20314;-61
2020/12/04 05:49:25;;;;;;;65.90;43.53;;;13.00;50.00;;;;;;5000843;28;20281;-61
2020/12/04 05:51:55;;;;;;;63.83;41.33;;;13.10;50.40;;;;;;5000724;28;20673;-61
2020/12/04 05:54:21;;;;;;;72.40;43.00;;;13.10;50.40;;;;;;5000321;28;20282;-61
2020/12/04 05:56:51;;;;;;;68.17;42.03;;;13.10;50.40;;;;;;5000631;28;20209;-61
2020/12/04 05:59:21;;;;;;;62.20;39.40;;;13.10;50.60;;;;;;4999706;28;20185;-61
2020/12/04 06:01:46;;;;;;;64.33;42.87;;;13.20;50.40;;;;;;4984667;28;20193;-61
2020/12/04 06:04:19;;;;;;;64.33;44.30;;;13.30;50.70;;;;;;4997204;28;20279;-61
2020/12/04 06:06:45;;;;;;;59.90;40.80;;;13.20;50.60;;;;;;4997465;28;20213;-73
2020/12/04 06:09:12;;;;;;;58.97;41.37;;;13.20;49.50;;;;;;5006965;28;20198;-60
2020/12/04 06:11:48;;;;;;;57.00;38.07;;;13.10;49.50;;;;;;5000171;28;20217;-61
2020/12/04 06:14:25;;;;;;;52.40;36.23;;;13.10;49.40;;;;;;5000551;28;20193;-61
2020/12/04 06:17:10;;;;;;;55.07;36.13;;;13.10;49.30;;;;;;4990830;28;20220;-61
2020/12/04 06:19:38;;;;;;;50.90;35.63;;;13.20;49.60;;;;;;5027103;28;20224;-61
2020/12/04 06:22:04;;;;;;;49.57;33.90;;;13.20;49.30;;;;;;4999854;28;20198;-61
2020/12/04 06:24:32;;;;;;;47.00;31.77;;;13.20;49.90;;;;;;5000325;28;20692;-61
2020/12/04 06:26:58;;;;;;;42.27;30.40;;;13.20;50.10;;;;;;4999736;28;20358;-61
2020/12/04 06:29:24;;;;;;;42.27;29.43;;;13.20;49.70;;;;;;4999229;28;20184;-61
2020/12/04 06:31:49;;;;;;;38.60;28.50;;;13.20;49.30;;;;;;5000564;28;20206;-61
2020/12/04 06:34:20;;;;;;;39.47;27.27;;;13.30;49.90;;;;;;5000933;28;20202;-63
2020/12/04 06:36:47;;;;;;;37.70;26.67;;;13.30;48.70;;;;;;5000964;28;20205;-68
2020/12/04 06:39:30;;;;;;;34.90;25.73;;;13.30;50.00;;;;;;5000436;28;20248;-61
2020/12/04 06:41:56;;;;;;;35.23;24.73;;;13.30;50.20;;;;;;4999886;28;20261;-62
2020/12/04 06:44:24;;;;;;;39.33;24.37;;;13.30;50.30;;;;;;5000230;28;20186;-68
2020/12/04 06:46:57;;;;;;;36.23;25.13;;;13.30;49.70;;;;;;4999306;28;20240;-65
2020/12/04 06:49:39;;;;;;;30.63;22.80;;;13.40;49.60;;;;;;5000166;28;20191;-60
2020/12/04 06:52:14;;;;;;;33.50;24.10;;;13.40;49.30;;;;;;4998221;28;20248;-60
2020/12/04 06:54:48;;;;;;;33.90;22.77;;;13.30;49.30;;;;;;4991931;28;20196;-61
2020/12/04 06:57:23;;;;;;;32.37;21.10;;;13.30;49.50;;;;;;4992228;28;20219;-60
2020/12/04 06:59:49;;;;;;;32.07;21.83;;;13.20;48.50;;;;;;4998573;28;20183;-64
2020/12/04 07:02:20;;;;;;;27.83;19.77;;;13.20;48.90;;;;;;4999942;28;20198;-63
2020/12/04 07:04:54;;;;;;;31.83;19.27;;;13.20;48.80;;;;;;5030995;28;20204;-61
2020/12/04 07:07:21;;;;;;;31.03;18.33;;;13.20;49.40;;;;;;4998943;28;20867;-61
2020/12/04 07:10:01;;;;;;;26.67;17.50;;;13.20;49.30;;;;;;4990746;28;20211;-62
2020/12/04 07:12:28;;;;;;;25.90;17.67;;;13.20;49.50;;;;;;4998139;28;20234;-61
2020/12/04 07:14:56;;;;;;;28.37;18.10;;;13.20;49.50;;;;;;4999025;28;20227;-61
2020/12/04 07:17:26;;;;;;;25.37;18.03;;;13.20;49.10;;;;;;4998050;28;20202;-69
2020/12/04 07:19:54;;;;;;;27.60;18.53;;;13.30;50.60;;;;;;4997389;28;20654;-63
2020/12/04 07:22:24;;;;;;;30.70;18.33;;;13.30;49.10;;;;;;4999057;28;20198;-64
2020/12/04 07:24:51;;;;;;;27.27;16.80;;;13.30;48.60;;;;;;4998399;28;20678;-62
2020/12/04 07:27:24;;;;;;;26.27;15.67;;;13.30;49.70;;;;;;4999705;28;20772;-64
2020/12/04 07:29:49;;;;;;;26.07;15.27;;;13.30;49.70;;;;;;4996501;28;20195;-63
2020/12/04 07:32:20;;;;;;;25.73;14.27;;;13.30;49.90;;;;;;4994129;28;20230;-62
2020/12/04 07:34:46;;;;;;;22.17;13.67;;;13.30;49.10;;;;;;4996187;28;20690;-66
2020/12/04 07:37:12;;;;;;;22.63;13.93;;;13.40;49.90;;;;;;4999621;28;20238;-62
2020/12/04 07:39:39;;;;;;;24.13;14.17;;;13.40;50.30;;;;;;4999572;28;20550;-62
2020/12/04 07:42:06;;;;;;;24.07;14.67;;;13.40;49.10;;;;;;4999220;28;20202;-63
2020/12/04 07:44:35;;;;;;;22.77;12.47;;;13.40;49.40;;;;;;4999427;28;20194;-62
2020/12/04 07:47:15;;;;;;;21.20;14.47;;;13.40;48.80;;;;;;4998974;28;20686;-62
2020/12/04 07:49:45;;;;;;;35.37;16.13;;;13.30;48.50;;;;;;4999148;28;20756;-61
2020/12/04 07:52:22;;;;;;;34.70;16.83;;;13.40;49.10;;;;;;4999027;28;20215;-61
2020/12/04 07:54:57;;;;;;;28.83;16.47;;;13.50;48.40;;;;;;4999029;28;20842;-62
2020/12/04 07:57:31;;;;;;;33.37;13.83;;;13.60;48.50;;;;;;4999327;28;20287;-64
2020/12/04 07:59:58;;;;;;;27.10;14.37;;;13.70;48.40;;;;;;4997978;28;20561;-62
2020/12/04 08:02:25;;;;;;;24.97;14.07;;;13.60;47.90;;;;;;4998775;28;20184;-67
2020/12/04 08:04:52;;;;;;;26.33;12.40;;;13.70;47.70;;;;;;4998895;28;20238;-59
2020/12/04 08:07:18;;;;;;;21.67;13.40;;;13.70;47.20;;;;;;5029986;28;20212;-66
2020/12/04 08:09:44;;;;;;;24.43;12.67;;;13.60;48.00;;;;;;4998525;28;20234;-68
2020/12/04 08:12:38;;;;;;;20.70;12.53;;;13.70;47.40;;;;;;4998389;28;20237;-61
2020/12/04 08:15:04;;;;;;;22.90;12.87;;;13.70;47.90;;;;;;4998684;28;20215;-61
2020/12/04 08:17:31;;;;;;;22.47;11.90;;;13.70;48.00;;;;;;4998350;28;20209;-61
2020/12/04 08:19:59;;;;;;;19.67;11.57;;;13.70;47.60;;;;;;4997718;28;20216;-59
2020/12/04 08:22:33;;;;;;;17.40;11.93;;;13.70;47.50;;;;;;4997964;28;20204;-62
2020/12/04 08:25:04;;;;;;;18.07;12.23;;;13.70;47.70;;;;;;4998681;28;20193;-62
2020/12/04 08:27:45;;;;;;;24.57;13.80;;;13.70;47.70;;;;;;4990637;28;20256;-62
2020/12/04 08:30:17;;;;;;;19.37;13.03;;;13.80;48.60;;;;;;4996839;28;20193;-62
2020/12/04 08:32:44;;;;;;;19.27;13.50;;;13.80;49.00;;;;;;4998682;28;20309;-59
2020/12/04 08:35:19;;;;;;;18.73;12.00;;;13.90;48.30;;;;;;4998103;28;20269;-61
2020/12/04 08:37:46;;;;;;;21.67;14.03;;;13.90;48.50;;;;;;4998033;28;20211;-59
2020/12/04 08:40:32;;;;;;;20.43;12.70;;;14.00;48.30;;;;;;4995809;28;20203;-60
2020/12/04 08:43:11;;;;;;;21.00;13.17;;;14.00;48.60;;;;;;4998676;28;20717;-59
2020/12/04 08:45:39;;;;;;;17.23;11.30;;;14.10;48.00;;;;;;4998229;28;20189;-63
2020/12/04 08:48:13;;;;;;;16.83;12.03;;;14.10;47.80;;;;;;5029150;28;20208;-60
2020/12/04 08:50:42;;;;;;;18.50;11.90;;;14.10;47.90;;;;;;4995851;28;20959;-68
2020/12/04 08:53:09;;;;;;;17.70;12.10;;;14.10;47.50;;;;;;4998345;28;20703;-61
2020/12/04 08:55:35;;;;;;;14.67;11.07;;;14.10;48.20;;;;;;4998333;28;20199;-61
2020/12/04 08:58:01;;;;;;;13.70;10.63;;;14.10;48.20;;;;;;4989055;28;20275;-61
2020/12/04 09:00:35;;;;;;;17.77;11.37;;;14.00;46.60;;;;;;4997558;28;20273;-61
2020/12/04 09:03:01;;;;;;;17.10;11.73;;;13.90;46.90;;;;;;5029853;28;20223;-62
2020/12/04 09:05:26;;;;;;;17.10;10.87;;;14.00;47.20;;;;;;4997399;28;20882;-62
2020/12/04 09:07:52;;;;;;;19.70;11.33;;;14.00;47.80;;;;;;4997972;28;20294;-59
2020/12/04 09:10:19;;;;;;;17.00;11.07;;;14.10;48.00;;;;;;4996896;28;20626;-61
2020/12/04 09:12:49;;;;;;;15.90;10.87;;;14.10;48.00;;;;;;4998152;28;20432;-59
2020/12/04 09:15:18;;;;;;;16.67;10.53;;;14.10;48.00;;;;;;4992831;28;20220;-60
2020/12/04 09:17:44;;;;;;;16.80;11.07;;;14.00;47.80;;;;;;5000252;28;20708;-60
2020/12/04 09:20:12;;;;;;;15.40;10.60;;;14.00;48.90;;;;;;5001169;28;21018;-61
2020/12/04 09:22:38;;;;;;;14.83;10.97;;;14.10;48.70;;;;;;5001581;28;20196;-59
2020/12/04 09:25:07;;;;;;;16.20;11.00;;;14.10;48.20;;;;;;4993767;28;20198;-58
2020/12/04 09:27:32;;;;;;;14.97;10.43;;;14.10;48.00;;;;;;5001782;28;20634;-66
2020/12/04 09:29:59;;;;;;;14.90;9.83;;;14.10;48.80;;;;;;4998809;28;20182;-59
2020/12/04 09:32:26;;;;;;;14.80;10.57;;;14.10;48.40;;;;;;4994997;28;20724;-59
2020/12/04 09:34:52;;;;;;;18.37;9.93;;;14.10;47.50;;;;;;5000849;28;20191;-61
2020/12/04 09:37:21;;;;;;;19.00;10.60;;;14.10;47.20;;;;;;5001103;28;20219;-58
2020/12/04 09:39:50;;;;;;;15.30;10.13;;;14.10;46.90;;;;;;5000895;28;20193;-59
2020/12/04 09:42:17;;;;;;;19.63;10.43;;;14.10;47.10;;;;;;5001439;28;20628;-59
2020/12/04 09:44:43;;;;;;;17.70;10.20;;;14.20;47.30;;;;;;5001067;28;20199;-57
2020/12/04 09:47:11;;;;;;;16.37;10.23;;;14.30;47.40;;;;;;5000646;28;20546;-61
2020/12/04 09:49:37;;;;;;;18.03;10.63;;;14.30;47.30;;;;;;5001279;28;20227;-61
2020/12/04 09:52:03;;;;;;;17.63;10.70;;;14.40;47.40;;;;;;5000530;28;20190;-59
2020/12/04 09:54:35;;;;;;;15.63;11.17;;;14.40;46.70;;;;;;5001713;28;20224;-58
2020/12/04 09:57:01;;;;;;;17.80;10.50;;;14.40;46.40;;;;;;5000937;28;20707;-61
2020/12/04 09:59:27;;;;;;;14.00;10.23;;;14.40;46.90;;;;;;5000374;28;20196;-61
2020/12/04 10:01:54;;;;;;;14.47;10.17;;;14.50;46.60;;;;;;5000070;28;20196;-62
2020/12/04 10:04:21;;;;;;;15.27;9.50;;;14.40;46.80;;;;;;4999912;28;20217;-60
2020/12/04 10:06:47;;;;;;;14.13;9.23;;;14.50;47.00;;;;;;5000877;28;20641;-59
2020/12/04 10:09:14;;;;;;;14.43;10.10;;;14.50;47.60;;;;;;5000828;28;20274;-59
2020/12/04 10:11:40;;;;;;;14.93;9.43;;;14.50;47.60;;;;;;4998929;28;20193;-59
2020/12/04 10:14:06;;;;;;;13.90;9.40;;;14.60;47.60;;;;;;5000625;28;20227;-61
2020/12/04 10:16:32;;;;;;;13.90;9.67;;;14.60;47.40;;;;;;5000390;28;20188;-59
2020/12/04 10:18:58;;;;;;;15.50;10.57;;;14.70;47.70;;;;;;5000679;28;20195;-59
2020/12/04 10:21:32;;;;;;;15.77;10.43;;;14.70;47.70;;;;;;5000298;28;20199;-58
2020/12/04 10:23:58;;;;;;;16.53;10.70;;;14.70;47.40;;;;;;5000163;28;20198;-59
2020/12/04 10:26:24;;;;;;;16.97;11.70;;;14.80;47.60;;;;;;5000561;28;20232;-59
2020/12/04 10:28:51;;;;;;;17.83;11.77;;;14.80;47.50;;;;;;4999783;28;20198;-59
2020/12/04 10:31:16;;;;;;;17.47;11.90;;;14.80;47.40;;;;;;5000394;28;20248;-59
2020/12/04 10:33:42;;;;;;;16.77;11.50;;;14.80;46.90;;;;;;5000803;28;20217;-59
2020/12/04 10:36:08;;;;;;;17.27;11.67;;;14.80;47.40;;;;;;4991876;28;20495;-59
2020/12/04 10:38:34;;;;;;;17.07;12.27;;;14.80;47.50;;;;;;5000774;28;20237;-59
2020/12/04 10:41:00;;;;;;;17.23;11.77;;;14.90;47.60;;;;;;4999343;28;20727;-59
2020/12/04 10:43:26;;;;;;;16.23;12.00;;;14.90;47.30;;;;;;4999892;28;20290;-60
2020/12/04 10:45:52;;;;;;;15.37;10.63;;;15.00;47.30;;;;;;4999856;28;20202;-59
2020/12/04 10:48:18;;;;;;;20.27;11.07;;;14.90;47.40;;;;;;5000287;28;20297;-58
2020/12/04 10:50:45;;;;;;;20.93;11.90;;;14.90;47.70;;;;;;4999666;28;20858;-58
2020/12/04 10:53:11;;;;;;;18.37;11.33;;;14.80;46.50;;;;;;4991245;28;20211;-58
2020/12/04 10:55:37;;;;;;;26.43;11.73;;;14.80;46.50;;;;;;5000671;28;20276;-58
2020/12/04 10:58:03;;;;;;;27.97;12.57;;;14.80;48.10;;;;;;4999286;28;20572;-58
2020/12/04 11:00:30;;;;;;;18.03;11.70;;;14.70;49.10;;;;;;4997835;28;20300;-58
2020/12/04 11:03:42;;;;;;;23.40;11.20;;;14.80;48.00;;;;;;4997966;28;20193;-59
2020/12/04 11:05:46;;;;;;;21.03;11.27;;;14.80;48.80;;;;;;4999642;28;20208;-58
2020/12/04 11:08:12;;;;;;;19.87;11.93;;;14.80;49.20;;;;;;4991035;28;20324;-59
2020/12/04 11:10:38;;;;;;;17.47;11.33;;;14.80;48.40;;;;;;4997715;28;20288;-58
2020/12/04 11:13:04;;;;;;;20.27;12.07;;;14.80;48.30;;;;;;5030814;28;20226;-58
2020/12/04 11:15:30;;;;;;;17.00;11.03;;;14.80;48.10;;;;;;4999525;28;20966;-58
2020/12/04 11:17:56;;;;;;;14.50;10.73;;;14.70;48.20;;;;;;4989457;28;20217;-58
2020/12/04 11:20:23;;;;;;;16.17;10.90;;;14.80;47.80;;;;;;4992243;28;20200;-58
2020/12/04 11:22:50;;;;;;;14.77;10.70;;;14.80;48.30;;;;;;4998381;28;20584;-59
2020/12/04 11:25:16;;;;;;;13.13;10.43;;;14.80;48.20;;;;;;4999588;28;20254;-58
2020/12/04 11:27:46;;;;;;;16.63;10.37;;;14.80;49.00;;;;;;4999471;28;20219;-58
2020/12/04 11:30:13;;;;;;;15.97;10.30;;;14.90;48.60;;;;;;4991090;28;20204;-58
2020/12/04 11:32:46;;;;;;;14.00;10.17;;;14.90;48.20;;;;;;4999525;28;20224;-58
2020/12/04 11:35:14;;;;;;;12.73;8.97;;;14.90;47.50;;;;;;4989432;28;20223;-58
2020/12/04 11:37:42;;;;;;;14.30;9.77;;;14.90;47.40;;;;;;4998543;28;20199;-58
2020/12/04 11:40:10;;;;;;;14.07;10.53;;;15.00;48.20;;;;;;4998382;28;20189;-58
2020/12/04 11:42:38;;;;;;;14.30;9.63;;;15.00;47.50;;;;;;4991743;28;20194;-58
2020/12/04 11:45:09;;;;;;;11.97;9.80;;;15.00;47.50;;;;;;4998057;28;20199;-59
2020/12/04 11:47:39;;;;;;;12.53;9.67;;;15.00;48.00;;;;;;4998116;28;20213;-58
2020/12/04 11:50:18;;;;;;;11.83;9.13;;;15.00;48.40;;;;;;4990002;28;20765;-67
2020/12/04 11:52:44;;;;;;;12.63;9.70;;;15.10;47.90;;;;;;4998604;28;20206;-58
2020/12/04 11:55:11;;;;;;;12.93;9.17;;;15.10;48.10;;;;;;4999042;28;20193;-58
2020/12/04 11:57:38;;;;;;;12.77;8.73;;;15.10;47.50;;;;;;4999119;28;20698;-58
2020/12/04 12:00:09;;;;;;;11.70;8.83;;;15.10;47.60;;;;;;4995723;28;20183;-58
2020/12/04 12:02:37;;;;;;;13.50;8.83;;;15.10;47.30;;;;;;4995102;28;20193;-58
2020/12/04 12:05:03;;;;;;;13.53;9.30;;;15.10;47.40;;;;;;4996543;28;20198;-61
2020/12/04 12:07:29;;;;;;;18.30;10.83;;;15.10;47.20;;;;;;4984562;28;20231;-59
2020/12/04 12:09:55;;;;;;;15.60;10.40;;;15.00;47.50;;;;;;4999226;28;20406;-66
2020/12/04 12:12:20;;;;;;;16.43;10.00;;;15.00;46.30;;;;;;4998813;28;21200;-58
2020/12/04 12:14:46;;;;;;;14.37;10.37;;;15.10;47.70;;;;;;4999441;28;20983;-58
2020/12/04 12:17:13;;;;;;;13.80;9.03;;;15.00;47.30;;;;;;4999134;28;20242;-61
2020/12/04 12:19:40;;;;;;;16.43;9.77;;;15.10;47.00;;;;;;4998687;28;20289;-58
2020/12/04 12:22:07;;;;;;;19.17;10.13;;;15.00;47.10;;;;;;4999358;28;20751;-58
2020/12/04 12:24:35;;;;;;;14.73;9.43;;;15.10;47.20;;;;;;4997589;28;20195;-58
2020/12/04 12:27:00;;;;;;;16.37;11.30;;;15.10;47.40;;;;;;4998865;28;20231;-58
2020/12/04 12:29:26;;;;;;;21.07;10.93;;;15.00;47.30;;;;;;4998682;28;20845;-58
2020/12/04 12:31:52;;;;;;;21.37;11.27;;;15.00;47.70;;;;;;4991019;28;20288;-58